Elizabeth Mc Allister — WDB7652 — position and weather

sailwx.info

Track history (hours):
 
Tides and Currents Weather Stations Pressure Air Temp Water Temp Dewpoint Dewpoint Depression Visibility Wind Speed Wind Dir Waves Ship Positions

Elizabeth Mc Allister

Owner: MC ALLISTER TOWING & TRANSPORTATION INC, NEW YORK, NY. More information available from US FCC via Universal Licensing System and Coast Guard Vessel Documentation Center.

Last reported at 2015-Aug-14 03:33 UTC. Time now 2015-Sep-04 16:33 UTC.
Position N 40°38' W 074°10'.
Warning: this ship's position is 21 days out of date.

Length 31 m.

Type: Tug. MMSI: 366945680.

Date/timePositionNaut miles runAvg speedWind from/ knotsBaromVisibWave heightAir tempDewpointWater temp
2015-Aug-14 03:33N 40°38' W 074°10'6 5.7
2015-Aug-14 02:33N 40°33' W 074°14'2 1.6
2015-Aug-14 01:33N 40°32' W 074°15'2 2.0
2015-Aug-14 00:28N 40°34' W 074°13'2 1.2
2015-Aug-13 22:32N 40°36' W 074°12'4 4.1
2015-Aug-13 21:33N 40°39' W 074°08'3 2.8
2015-Aug-13 20:34N 40°41' W 074°08'0 0.0
2015-Aug-13 19:33N 40°41' W 074°08'0 0.0
2015-Aug-13 18:33N 40°41' W 074°08'3 2.7
2015-Aug-13 17:33N 40°39' W 074°09'1 1.2
2015-Aug-13 16:34N 40°40' W 074°09'2 1.8
2015-Aug-13 15:33N 40°38' W 074°10'0 0.0
2015-Aug-13 14:33N 40°38' W 074°10'0 0.0
2015-Aug-13 13:34N 40°38' W 074°10'0 0.0
2015-Aug-13 12:33N 40°38' W 074°10'0 0.0
2015-Aug-13 11:33N 40°38' W 074°10'0 0.0
2015-Aug-13 10:34N 40°38' W 074°10'1 1.4
2015-Aug-13 09:34N 40°38' W 074°12'1 0.8
2015-Aug-13 08:33N 40°38' W 074°12'2 2.0
2015-Aug-13 07:34N 40°38' W 074°10'1 0.7
2015-Aug-13 06:34N 40°39' W 074°09'2 1.7
2015-Aug-13 05:33N 40°40' W 074°08'0 0.0
2015-Aug-13 04:33N 40°40' W 074°08'0 0.0
2015-Aug-13 03:34N 40°40' W 074°08'0 0.4
2015-Aug-13 02:34N 40°40' W 074°08'0 0.3
2015-Aug-13 01:33N 40°40' W 074°08'1 0.6
2015-Aug-13 00:33N 40°40' W 074°08'0 0.3
2015-Aug-12 23:33N 40°40' W 074°09'1 1.3
2015-Aug-12 22:33N 40°41' W 074°08'3 3.0
2015-Aug-12 21:34N 40°38' W 074°08'0 0.1
2015-Aug-12 20:33N 40°39' W 074°08'2 1.7
2015-Aug-12 19:33N 40°38' W 074°10'0 0.0
2015-Aug-12 18:33N 40°38' W 074°10'0 0.0
2015-Aug-12 17:34N 40°38' W 074°10'1 0.9
2015-Aug-12 16:34N 40°39' W 074°09'1 0.9
2015-Aug-12 15:33N 40°38' W 074°10'0 0.0
2015-Aug-12 14:33N 40°38' W 074°10'4 2.6
2015-Aug-12 13:04N 40°35' W 074°13'1 1.8
2015-Aug-12 12:32N 40°36' W 074°12'0 0.3
2015-Aug-12 11:33N 40°36' W 074°12'3 3.1
2015-Aug-12 10:33N 40°39' W 074°11'1 1.3
2015-Aug-12 09:33N 40°38' W 074°12'4 3.8
2015-Aug-12 08:34N 40°39' W 074°07'2 2.0
2015-Aug-12 07:33N 40°39' W 074°05'4 3.9
2015-Aug-12 06:34N 40°38' W 074°10'0 0.0
2015-Aug-12 05:34N 40°38' W 074°10'0 0.0
2015-Aug-12 04:31N 40°38' W 074°10'0 0.0
2015-Aug-12 03:33N 40°38' W 074°10'0 0.0
2015-Aug-12 02:33N 40°38' W 074°10'0 0.0
2015-Aug-12 01:33N 40°38' W 074°10'0 0.0
2015-Aug-12 00:28N 40°38' W 074°10'0 0.0
2015-Aug-11 23:33N 40°38' W 074°10'0 0.0
2015-Aug-11 22:31N 40°38' W 074°10'0 0.0
2015-Aug-11 21:33N 40°38' W 074°10'0 0.0
2015-Aug-11 20:33N 40°38' W 074°10'0 0.0
2015-Aug-11 19:33N 40°38' W 074°10'0 0.0
2015-Aug-11 18:33N 40°38' W 074°10'0 0.0
2015-Aug-11 17:33N 40°38' W 074°10'0 0.0
2015-Aug-11 16:30N 40°38' W 074°10'1 0.7
2015-Aug-11 15:34N 40°39' W 074°11'3 1.3
2015-Aug-11 13:30N 40°36' W 074°12'2 1.7
2015-Aug-11 12:33N 40°38' W 074°12'4 3.7
2015-Aug-11 11:34N 40°40' W 074°08'2 1.6
2015-Aug-11 10:34N 40°39' W 074°09'5 4.7
2015-Aug-11 09:33N 40°38' W 074°03'5 5.3
2015-Aug-11 08:34N 40°38' W 074°10'0 0.1
2015-Aug-11 07:32N 40°38' W 074°10'0 0.0
2015-Aug-11 06:31N 40°38' W 074°10'0 0.0
2015-Aug-11 05:32N 40°38' W 074°10'0 0.0
2015-Aug-11 04:28N 40°38' W 074°10'0 0.0
2015-Aug-11 03:15N 40°38' W 074°10'0 0.0
2015-Aug-11 01:30N 40°38' W 074°10'0 0.0
2015-Aug-11 00:33N 40°38' W 074°10'0 0.0
2015-Aug-10 23:32N 40°38' W 074°10'0 0.0
2015-Aug-10 22:33N 40°38' W 074°10'0 0.0
2015-Aug-10 21:34N 40°38' W 074°10'0 0.0
2015-Aug-10 20:33N 40°38' W 074°10'0 0.0
2015-Aug-10 19:33N 40°38' W 074°10'0 0.0
2015-Aug-10 18:34N 40°38' W 074°10'0 0.0
2015-Aug-10 17:34N 40°38' W 074°10'0 0.0
2015-Aug-10 16:33N 40°38' W 074°10'0 0.0
2015-Aug-10 15:33N 40°38' W 074°10'0 0.0
2015-Aug-10 14:33N 40°38' W 074°10'0 0.0
2015-Aug-10 13:33N 40°38' W 074°10'0 0.0
2015-Aug-10 12:33N 40°38' W 074°10'0 0.0
2015-Aug-10 11:33N 40°38' W 074°10'0 0.0
2015-Aug-10 10:30N 40°38' W 074°10'0 0.0
2015-Aug-10 09:33N 40°38' W 074°10'0 0.0
2015-Aug-10 08:33N 40°38' W 074°10'0 0.0
2015-Aug-10 07:34N 40°38' W 074°10'0 0.0
2015-Aug-10 06:33N 40°38' W 074°10'0 0.0
2015-Aug-10 05:33N 40°38' W 074°10'0 0.0
2015-Aug-10 04:33N 40°38' W 074°10'0 0.0
2015-Aug-10 03:33N 40°38' W 074°10'0 0.0
2015-Aug-10 02:34N 40°38' W 074°10'0 0.0
2015-Aug-10 01:33N 40°38' W 074°10'0 0.0
2015-Aug-10 00:34N 40°38' W 074°10'0 0.0
2015-Aug-09 23:33N 40°38' W 074°10'0 0.0
2015-Aug-09 22:33N 40°38' W 074°10'0 0.0
2015-Aug-09 21:33N 40°38' W 074°10'0 0.0
2015-Aug-09 20:33N 40°38' W 074°10'0 0.0
2015-Aug-09 19:34N 40°38' W 074°10'0 0.0
2015-Aug-09 18:33N 40°38' W 074°10'0 0.0
2015-Aug-09 17:32N 40°38' W 074°10'0 0.0
2015-Aug-09 16:33N 40°38' W 074°10'0 0.0
2015-Aug-09 15:31N 40°38' W 074°10'0 0.0
2015-Aug-09 14:26N 40°38' W 074°10'0 0.0
2015-Aug-09 13:31N 40°38' W 074°10'0 0.0
2015-Aug-09 12:33N 40°38' W 074°10'0 0.0
2015-Aug-09 11:33N 40°38' W 074°10'0 0.0
2015-Aug-09 10:33N 40°38' W 074°10'0 0.0
2015-Aug-09 09:33N 40°38' W 074°10'0 0.0
2015-Aug-09 08:34N 40°38' W 074°10'0 0.0
2015-Aug-09 07:33N 40°38' W 074°10'0 0.0
2015-Aug-09 06:33N 40°38' W 074°10'0 0.0
2015-Aug-09 05:34N 40°38' W 074°10'0 0.0
2015-Aug-09 04:34N 40°38' W 074°10'0 0.0
2015-Aug-09 03:32N 40°38' W 074°10'0 0.0
2015-Aug-09 02:33N 40°38' W 074°10'0 0.0
2015-Aug-09 01:33N 40°38' W 074°10'0 0.0
2015-Aug-09 00:34N 40°38' W 074°10'0 0.0
2015-Aug-08 23:33N 40°38' W 074°10'0 0.0
2015-Aug-08 22:33N 40°38' W 074°10'0 0.0
2015-Aug-08 21:33N 40°38' W 074°10'0 0.0
2015-Aug-08 20:33N 40°38' W 074°10'0 0.0
2015-Aug-08 19:33N 40°38' W 074°10'0 0.0
2015-Aug-08 18:34N 40°38' W 074°10'0 0.0
2015-Aug-08 17:34N 40°38' W 074°10'0 0.0
2015-Aug-08 16:30N 40°38' W 074°10'0 0.0
2015-Aug-08 15:30N 40°38' W 074°10'0 0.0
2015-Aug-08 14:26N 40°38' W 074°10'0 0.0
2015-Aug-08 13:32N 40°38' W 074°10'0 0.0
2015-Aug-08 12:33N 40°38' W 074°10'0 0.0
2015-Aug-08 11:34N 40°38' W 074°10'0 0.0
2015-Aug-08 10:34N 40°38' W 074°10'0 0.0
2015-Aug-08 09:32N 40°38' W 074°10'0 0.0
2015-Aug-08 08:33N 40°38' W 074°10'0 0.0
2015-Aug-08 07:34N 40°38' W 074°10'0 0.0
2015-Aug-08 06:34N 40°38' W 074°10'0 0.0
2015-Aug-08 05:33N 40°38' W 074°10'0 0.0
2015-Aug-08 04:34N 40°38' W 074°10'0 0.0
2015-Aug-08 03:32N 40°38' W 074°10'0 0.0
2015-Aug-08 02:34N 40°38' W 074°10'0 0.0
2015-Aug-08 01:33N 40°38' W 074°10'0 0.0
2015-Aug-08 00:33N 40°38' W 074°10'0 0.0
2015-Aug-07 23:33N 40°38' W 074°10'0 0.0
2015-Aug-07 22:34N 40°38' W 074°10'0 0.0
2015-Aug-07 21:34N 40°38' W 074°10'0 0.0
2015-Aug-07 20:34N 40°38' W 074°10'0 0.0
2015-Aug-07 19:34N 40°38' W 074°10'0 0.0
2015-Aug-07 18:34N 40°38' W 074°10'0 0.0
2015-Aug-07 17:33N 40°38' W 074°10'0 0.0
2015-Aug-07 16:34N 40°38' W 074°10'0 0.0
2015-Aug-07 15:34N 40°38' W 074°10'0 0.0
2015-Aug-07 14:33N 40°38' W 074°10'0 0.0
2015-Aug-07 13:34N 40°38' W 074°10'0 0.0
2015-Aug-07 12:32N 40°38' W 074°10'0 0.0
2015-Aug-07 11:33N 40°38' W 074°10'0 0.0
2015-Aug-07 10:33N 40°38' W 074°10'0 0.0
2015-Aug-07 09:33N 40°38' W 074°10'0 0.0
2015-Aug-07 08:31N 40°38' W 074°10'0 0.0
2015-Aug-07 07:33N 40°38' W 074°10'0 0.0
2015-Aug-07 06:33N 40°38' W 074°10'0 0.0
2015-Aug-07 05:33N 40°38' W 074°10'0 0.0
2015-Aug-07 04:33N 40°38' W 074°10'0 0.0
2015-Aug-07 03:33N 40°38' W 074°10'0 0.0
2015-Aug-07 02:34N 40°38' W 074°10'0 0.0
2015-Aug-07 01:34N 40°38' W 074°10'0 0.0
2015-Aug-07 00:33N 40°38' W 074°10'0 0.0
2015-Aug-06 23:34N 40°38' W 074°10'0 0.0
2015-Aug-06 22:33N 40°38' W 074°10'0 0.0
2015-Aug-06 21:34N 40°38' W 074°10'0 0.0
2015-Aug-06 20:33N 40°38' W 074°10'0 0.0
2015-Aug-06 19:34N 40°38' W 074°10'0 0.0
2015-Aug-06 18:33N 40°38' W 074°10'0 0.0
2015-Aug-06 17:33N 40°38' W 074°10'0 0.0
2015-Aug-06 16:33N 40°38' W 074°10'0 0.0
2015-Aug-06 15:33N 40°38' W 074°10'0 0.0
2015-Aug-06 14:33N 40°38' W 074°10'0 0.0
2015-Aug-06 13:33N 40°38' W 074°10'0 0.0
2015-Aug-06 12:32N 40°38' W 074°10'0 0.0
2015-Aug-06 11:32N 40°38' W 074°10'0 0.0
2015-Aug-06 10:33N 40°38' W 074°10'0 0.0
2015-Aug-06 09:33N 40°38' W 074°10'0 0.0
2015-Aug-06 08:33N 40°38' W 074°10'0 0.0
2015-Aug-06 07:08N 40°38' W 074°10'0 0.0
2015-Aug-06 06:33N 40°38' W 074°10'0 0.0
2015-Aug-06 05:33N 40°38' W 074°10'0 0.0
2015-Aug-06 04:34N 40°38' W 074°10'0 0.0
2015-Aug-06 03:34N 40°38' W 074°10'0 0.0
2015-Aug-06 02:33N 40°38' W 074°10'0 0.0
2015-Aug-06 01:33N 40°38' W 074°10'0 0.0
2015-Aug-06 00:33N 40°38' W 074°10'0 0.0
2015-Aug-05 23:33N 40°38' W 074°10'0 0.0
2015-Aug-05 22:31N 40°38' W 074°10'0 0.0
2015-Aug-05 21:33N 40°38' W 074°10'0 0.0
2015-Aug-05 20:33N 40°38' W 074°10'0 0.0
2015-Aug-05 19:33N 40°38' W 074°10'0 0.0
2015-Aug-05 18:34N 40°38' W 074°10'0 0.0
2015-Aug-05 17:34N 40°38' W 074°10'1 1.0
2015-Aug-05 16:34N 40°39' W 074°08'5 4.9
2015-Aug-05 15:33N 40°36' W 074°03'9 8.8
2015-Aug-05 14:33N 40°27' W 074°03'0 0.2
2015-Aug-05 13:32N 40°27' W 074°03'0 0.0
2015-Aug-05 12:33N 40°27' W 074°03'0 0.0
2015-Aug-05 11:33N 40°27' W 074°03'0 0.0
2015-Aug-05 10:33N 40°27' W 074°03'0 0.0
2015-Aug-05 09:29N 40°27' W 074°03'0 0.0
2015-Aug-04 06:18N 40°27' W 074°03'0 0.0
2015-Aug-04 05:33N 40°27' W 074°03'0 0.0
2015-Aug-04 04:33N 40°27' W 074°03'0 0.0
2015-Aug-04 03:34N 40°27' W 074°03'  
Track history (hours):
 
Tides and Currents Weather Stations Pressure Air Temp Water Temp Dewpoint Dewpoint Depression Visibility Wind Speed Wind Dir Waves Ship Positions

Elizabeth Mc Allister

Owner: MC ALLISTER TOWING & TRANSPORTATION INC, NEW YORK, NY. More information available from US FCC via Universal Licensing System and Coast Guard Vessel Documentation Center.

Last reported at 2015-Aug-14 03:33 UTC. Time now 2015-Sep-04 16:33 UTC.
Position N 40°38' W 074°10'.
Warning: this ship's position is 21 days out of date.

Length 31 m.

Type: Tug. MMSI: 366945680.

Date/timePositionNaut miles runAvg speedWind from/ knotsBaromVisibWave heightAir tempDewpointWater temp
2015-Aug-14 03:33N 40°38' W 074°10'6 5.7
2015-Aug-14 02:33N 40°33' W 074°14'2 1.6
2015-Aug-14 01:33N 40°32' W 074°15'2 2.0
2015-Aug-14 00:28N 40°34' W 074°13'2 1.2
2015-Aug-13 22:32N 40°36' W 074°12'4 4.1
2015-Aug-13 21:33N 40°39' W 074°08'3 2.8
2015-Aug-13 20:34N 40°41' W 074°08'0 0.0
2015-Aug-13 19:33N 40°41' W 074°08'0 0.0
2015-Aug-13 18:33N 40°41' W 074°08'3 2.7
2015-Aug-13 17:33N 40°39' W 074°09'1 1.2
2015-Aug-13 16:34N 40°40' W 074°09'2 1.8
2015-Aug-13 15:33N 40°38' W 074°10'0 0.0
2015-Aug-13 14:33N 40°38' W 074°10'0 0.0
2015-Aug-13 13:34N 40°38' W 074°10'0 0.0
2015-Aug-13 12:33N 40°38' W 074°10'0 0.0
2015-Aug-13 11:33N 40°38' W 074°10'0 0.0
2015-Aug-13 10:34N 40°38' W 074°10'1 1.4
2015-Aug-13 09:34N 40°38' W 074°12'1 0.8
2015-Aug-13 08:33N 40°38' W 074°12'2 2.0
2015-Aug-13 07:34N 40°38' W 074°10'1 0.7
2015-Aug-13 06:34N 40°39' W 074°09'2 1.7
2015-Aug-13 05:33N 40°40' W 074°08'0 0.0
2015-Aug-13 04:33N 40°40' W 074°08'0 0.0
2015-Aug-13 03:34N 40°40' W 074°08'0 0.4
2015-Aug-13 02:34N 40°40' W 074°08'0 0.3
2015-Aug-13 01:33N 40°40' W 074°08'1 0.6
2015-Aug-13 00:33N 40°40' W 074°08'0 0.3
2015-Aug-12 23:33N 40°40' W 074°09'1 1.3
2015-Aug-12 22:33N 40°41' W 074°08'3 3.0
2015-Aug-12 21:34N 40°38' W 074°08'0 0.1
2015-Aug-12 20:33N 40°39' W 074°08'2 1.7
2015-Aug-12 19:33N 40°38' W 074°10'0 0.0
2015-Aug-12 18:33N 40°38' W 074°10'0 0.0
2015-Aug-12 17:34N 40°38' W 074°10'1 0.9
2015-Aug-12 16:34N 40°39' W 074°09'1 0.9
2015-Aug-12 15:33N 40°38' W 074°10'0 0.0
2015-Aug-12 14:33N 40°38' W 074°10'4 2.6
2015-Aug-12 13:04N 40°35' W 074°13'1 1.8
2015-Aug-12 12:32N 40°36' W 074°12'0 0.3
2015-Aug-12 11:33N 40°36' W 074°12'3 3.1
2015-Aug-12 10:33N 40°39' W 074°11'1 1.3
2015-Aug-12 09:33N 40°38' W 074°12'4 3.8
2015-Aug-12 08:34N 40°39' W 074°07'2 2.0
2015-Aug-12 07:33N 40°39' W 074°05'4 3.9
2015-Aug-12 06:34N 40°38' W 074°10'0 0.0
2015-Aug-12 05:34N 40°38' W 074°10'0 0.0
2015-Aug-12 04:31N 40°38' W 074°10'0 0.0
2015-Aug-12 03:33N 40°38' W 074°10'0 0.0
2015-Aug-12 02:33N 40°38' W 074°10'0 0.0
2015-Aug-12 01:33N 40°38' W 074°10'0 0.0
2015-Aug-12 00:28N 40°38' W 074°10'0 0.0
2015-Aug-11 23:33N 40°38' W 074°10'0 0.0
2015-Aug-11 22:31N 40°38' W 074°10'0 0.0
2015-Aug-11 21:33N 40°38' W 074°10'0 0.0
2015-Aug-11 20:33N 40°38' W 074°10'0 0.0
2015-Aug-11 19:33N 40°38' W 074°10'0 0.0
2015-Aug-11 18:33N 40°38' W 074°10'0 0.0
2015-Aug-11 17:33N 40°38' W 074°10'0 0.0
2015-Aug-11 16:30N 40°38' W 074°10'1 0.7
2015-Aug-11 15:34N 40°39' W 074°11'3 1.3
2015-Aug-11 13:30N 40°36' W 074°12'2 1.7
2015-Aug-11 12:33N 40°38' W 074°12'4 3.7
2015-Aug-11 11:34N 40°40' W 074°08'2 1.6
2015-Aug-11 10:34N 40°39' W 074°09'5 4.7
2015-Aug-11 09:33N 40°38' W 074°03'5 5.3
2015-Aug-11 08:34N 40°38' W 074°10'0 0.1
2015-Aug-11 07:32N 40°38' W 074°10'0 0.0
2015-Aug-11 06:31N 40°38' W 074°10'0 0.0
2015-Aug-11 05:32N 40°38' W 074°10'0 0.0
2015-Aug-11 04:28N 40°38' W 074°10'0 0.0
2015-Aug-11 03:15N 40°38' W 074°10'0 0.0
2015-Aug-11 01:30N 40°38' W 074°10'0 0.0
2015-Aug-11 00:33N 40°38' W 074°10'0 0.0
2015-Aug-10 23:32N 40°38' W 074°10'0 0.0
2015-Aug-10 22:33N 40°38' W 074°10'0 0.0
2015-Aug-10 21:34N 40°38' W 074°10'0 0.0
2015-Aug-10 20:33N 40°38' W 074°10'0 0.0
2015-Aug-10 19:33N 40°38' W 074°10'0 0.0
2015-Aug-10 18:34N 40°38' W 074°10'0 0.0
2015-Aug-10 17:34N 40°38' W 074°10'0 0.0
2015-Aug-10 16:33N 40°38' W 074°10'0 0.0
2015-Aug-10 15:33N 40°38' W 074°10'0 0.0
2015-Aug-10 14:33N 40°38' W 074°10'0 0.0
2015-Aug-10 13:33N 40°38' W 074°10'0 0.0
2015-Aug-10 12:33N 40°38' W 074°10'0 0.0
2015-Aug-10 11:33N 40°38' W 074°10'0 0.0
2015-Aug-10 10:30N 40°38' W 074°10'0 0.0
2015-Aug-10 09:33N 40°38' W 074°10'0 0.0
2015-Aug-10 08:33N 40°38' W 074°10'0 0.0
2015-Aug-10 07:34N 40°38' W 074°10'0 0.0
2015-Aug-10 06:33N 40°38' W 074°10'0 0.0
2015-Aug-10 05:33N 40°38' W 074°10'0 0.0
2015-Aug-10 04:33N 40°38' W 074°10'0 0.0
2015-Aug-10 03:33N 40°38' W 074°10'0 0.0
2015-Aug-10 02:34N 40°38' W 074°10'0 0.0
2015-Aug-10 01:33N 40°38' W 074°10'0 0.0
2015-Aug-10 00:34N 40°38' W 074°10'0 0.0
2015-Aug-09 23:33N 40°38' W 074°10'0 0.0
2015-Aug-09 22:33N 40°38' W 074°10'0 0.0
2015-Aug-09 21:33N 40°38' W 074°10'0 0.0
2015-Aug-09 20:33N 40°38' W 074°10'0 0.0
2015-Aug-09 19:34N 40°38' W 074°10'0 0.0
2015-Aug-09 18:33N 40°38' W 074°10'0 0.0
2015-Aug-09 17:32N 40°38' W 074°10'0 0.0
2015-Aug-09 16:33N 40°38' W 074°10'0 0.0
2015-Aug-09 15:31N 40°38' W 074°10'0 0.0
2015-Aug-09 14:26N 40°38' W 074°10'0 0.0
2015-Aug-09 13:31N 40°38' W 074°10'0 0.0
2015-Aug-09 12:33N 40°38' W 074°10'0 0.0
2015-Aug-09 11:33N 40°38' W 074°10'0 0.0
2015-Aug-09 10:33N 40°38' W 074°10'0 0.0
2015-Aug-09 09:33N 40°38' W 074°10'0 0.0
2015-Aug-09 08:34N 40°38' W 074°10'0 0.0
2015-Aug-09 07:33N 40°38' W 074°10'0 0.0
2015-Aug-09 06:33N 40°38' W 074°10'0 0.0
2015-Aug-09 05:34N 40°38' W 074°10'0 0.0
2015-Aug-09 04:34N 40°38' W 074°10'0 0.0
2015-Aug-09 03:32N 40°38' W 074°10'0 0.0
2015-Aug-09 02:33N 40°38' W 074°10'0 0.0
2015-Aug-09 01:33N 40°38' W 074°10'0 0.0
2015-Aug-09 00:34N 40°38' W 074°10'0 0.0
2015-Aug-08 23:33N 40°38' W 074°10'0 0.0
2015-Aug-08 22:33N 40°38' W 074°10'0 0.0
2015-Aug-08 21:33N 40°38' W 074°10'0 0.0
2015-Aug-08 20:33N 40°38' W 074°10'0 0.0
2015-Aug-08 19:33N 40°38' W 074°10'0 0.0
2015-Aug-08 18:34N 40°38' W 074°10'0 0.0
2015-Aug-08 17:34N 40°38' W 074°10'0 0.0
2015-Aug-08 16:30N 40°38' W 074°10'0 0.0
2015-Aug-08 15:30N 40°38' W 074°10'0 0.0
2015-Aug-08 14:26N 40°38' W 074°10'0 0.0
2015-Aug-08 13:32N 40°38' W 074°10'0 0.0
2015-Aug-08 12:33N 40°38' W 074°10'0 0.0
2015-Aug-08 11:34N 40°38' W 074°10'0 0.0
2015-Aug-08 10:34N 40°38' W 074°10'0 0.0
2015-Aug-08 09:32N 40°38' W 074°10'0 0.0
2015-Aug-08 08:33N 40°38' W 074°10'0 0.0
2015-Aug-08 07:34N 40°38' W 074°10'0 0.0
2015-Aug-08 06:34N 40°38' W 074°10'0 0.0
2015-Aug-08 05:33N 40°38' W 074°10'0 0.0
2015-Aug-08 04:34N 40°38' W 074°10'0 0.0
2015-Aug-08 03:32N 40°38' W 074°10'0 0.0
2015-Aug-08 02:34N 40°38' W 074°10'0 0.0
2015-Aug-08 01:33N 40°38' W 074°10'0 0.0
2015-Aug-08 00:33N 40°38' W 074°10'0 0.0
2015-Aug-07 23:33N 40°38' W 074°10'0 0.0
2015-Aug-07 22:34N 40°38' W 074°10'0 0.0
2015-Aug-07 21:34N 40°38' W 074°10'0 0.0
2015-Aug-07 20:34N 40°38' W 074°10'0 0.0
2015-Aug-07 19:34N 40°38' W 074°10'0 0.0
2015-Aug-07 18:34N 40°38' W 074°10'0 0.0
2015-Aug-07 17:33N 40°38' W 074°10'0 0.0
2015-Aug-07 16:34N 40°38' W 074°10'0 0.0
2015-Aug-07 15:34N 40°38' W 074°10'0 0.0
2015-Aug-07 14:33N 40°38' W 074°10'0 0.0
2015-Aug-07 13:34N 40°38' W 074°10'0 0.0
2015-Aug-07 12:32N 40°38' W 074°10'0 0.0
2015-Aug-07 11:33N 40°38' W 074°10'0 0.0
2015-Aug-07 10:33N 40°38' W 074°10'0 0.0
2015-Aug-07 09:33N 40°38' W 074°10'0 0.0
2015-Aug-07 08:31N 40°38' W 074°10'0 0.0
2015-Aug-07 07:33N 40°38' W 074°10'0 0.0
2015-Aug-07 06:33N 40°38' W 074°10'0 0.0
2015-Aug-07 05:33N 40°38' W 074°10'0 0.0
2015-Aug-07 04:33N 40°38' W 074°10'0 0.0
2015-Aug-07 03:33N 40°38' W 074°10'0 0.0
2015-Aug-07 02:34N 40°38' W 074°10'0 0.0
2015-Aug-07 01:34N 40°38' W 074°10'0 0.0
2015-Aug-07 00:33N 40°38' W 074°10'0 0.0
2015-Aug-06 23:34N 40°38' W 074°10'0 0.0
2015-Aug-06 22:33N 40°38' W 074°10'0 0.0
2015-Aug-06 21:34N 40°38' W 074°10'0 0.0
2015-Aug-06 20:33N 40°38' W 074°10'0 0.0
2015-Aug-06 19:34N 40°38' W 074°10'0 0.0
2015-Aug-06 18:33N 40°38' W 074°10'0 0.0
2015-Aug-06 17:33N 40°38' W 074°10'0 0.0
2015-Aug-06 16:33N 40°38' W 074°10'0 0.0
2015-Aug-06 15:33N 40°38' W 074°10'0 0.0
2015-Aug-06 14:33N 40°38' W 074°10'0 0.0
2015-Aug-06 13:33N 40°38' W 074°10'0 0.0
2015-Aug-06 12:32N 40°38' W 074°10'0 0.0
2015-Aug-06 11:32N 40°38' W 074°10'0 0.0
2015-Aug-06 10:33N 40°38' W 074°10'0 0.0
2015-Aug-06 09:33N 40°38' W 074°10'0 0.0
2015-Aug-06 08:33N 40°38' W 074°10'0 0.0
2015-Aug-06 07:08N 40°38' W 074°10'0 0.0
2015-Aug-06 06:33N 40°38' W 074°10'0 0.0
2015-Aug-06 05:33N 40°38' W 074°10'0 0.0
2015-Aug-06 04:34N 40°38' W 074°10'0 0.0
2015-Aug-06 03:34N 40°38' W 074°10'0 0.0
2015-Aug-06 02:33N 40°38' W 074°10'0 0.0
2015-Aug-06 01:33N 40°38' W 074°10'0 0.0
2015-Aug-06 00:33N 40°38' W 074°10'0 0.0
2015-Aug-05 23:33N 40°38' W 074°10'0 0.0
2015-Aug-05 22:31N 40°38' W 074°10'0 0.0
2015-Aug-05 21:33N 40°38' W 074°10'0 0.0
2015-Aug-05 20:33N 40°38' W 074°10'0 0.0
2015-Aug-05 19:33N 40°38' W 074°10'0 0.0
2015-Aug-05 18:34N 40°38' W 074°10'0 0.0
2015-Aug-05 17:34N 40°38' W 074°10'1 1.0
2015-Aug-05 16:34N 40°39' W 074°08'5 4.9
2015-Aug-05 15:33N 40°36' W 074°03'9 8.8
2015-Aug-05 14:33N 40°27' W 074°03'0 0.2
2015-Aug-05 13:32N 40°27' W 074°03'0 0.0
2015-Aug-05 12:33N 40°27' W 074°03'0 0.0
2015-Aug-05 11:33N 40°27' W 074°03'0 0.0
2015-Aug-05 10:33N 40°27' W 074°03'0 0.0
2015-Aug-05 09:29N 40°27' W 074°03'0 0.0
2015-Aug-04 06:18N 40°27' W 074°03'0 0.0
2015-Aug-04 05:33N 40°27' W 074°03'0 0.0
2015-Aug-04 04:33N 40°27' W 074°03'0 0.0
2015-Aug-04 03:34N 40°27' W 074°03'  

Dump ship's entire track history